Airfield :
LOGIN :

Register | Disclaimer

   EN    FR    IT 

 










Legend :    VFR   Marginal VFR   IFR   Intensive IFR   Very Intensive IFR
Visi :
Ceiling :
>= 8 km
>= 3000ft
5 to 8 km
1000 to 3000 ft
1500m to 5 km
500 to 1000 ft
800 to 1500m
200 to 500 ft
< 800m
< 200 ft
Symbols :   Thunderstorms  Fog  Heavy snow  Heavy precipitations  Wind > 20 kt
SIGMETs :     Misc.  Thunderstorms  Icing  Turbulence  Mountain Waves  Volcanic Ashes







- Airport Elevation : 297 ft
- IATA code : UIP
- Download approach charts


LFRQ - Quimper Pluguffan

CURRENT METAR :
  • 240830Z AUTO 26011KT 220V280 9999 BKN016 BKN021 BKN028 19/14 Q1020 BECMG BKN012

EXPIRED METARs :
  • 240800Z AUTO 26010KT 240V300 9999 BKN016 OVC030 18/14 Q1020 NOSIG
  • 240730Z AUTO 25010KT 220V280 9999 BKN014 BKN020 BKN032 19/15 Q1020 BECMG SCT012
  • 240700Z AUTO 26010KT 230V290 9999 BKN012 OVC018 17/15 Q1020 BECMG SCT012
  • 240630Z AUTO 25008KT 9999 BKN010 16/16 Q1020 BECMG SCT012
  • 240600Z AUTO 23003KT 9999 BKN011 15/15 Q1020 BECMG SCT012

Expired Forecast.
No reported NOTAMs for that airfield.



MET'MAP, your aeronautical weather chart ! - Copyright ORBIFLY December 2007 - Disclaimer

ORBIFLY MET'MAP TEAM :

Programming & Development : Alexandra Zaïnal
Concept & Development : Baudouin d'Aumeries
Co-Development & Prog : Marc-Olivier Méhu
Technical & hardware support : Manuel Goepfert

Contact : metmap@orbifly.com




SOURCES & CREDITS :

   NOAA